Time;durP1;ratioP1;P1;durP2;ratioP2;P2;SDS_P1;SDS_P2;PMS_P1;PMS_P2;Temp;Humidity;BMP_temperature;BMP_pressure;BME280_temperature;BME280_humidity;BME280_pressure;Samples;Min_cycle;Max_cycle;Signal;HPM_P1;HPM_P2
2022/01/02 00:01:51;;;;;;;;;22.25;19.00;;;;;14.14;100.00;101667.31;5039476;28;45299;-78
2022/01/02 00:04:19;;;;;;;;;23.25;20.00;;;;;14.14;100.00;101658.63;5039542;28;45807;-80
2022/01/02 00:06:50;;;;;;;;;19.75;19.00;;;;;14.13;100.00;101659.44;5038994;28;45943;-79
2022/01/02 00:09:31;;;;;;;;;21.50;21.00;;;;;14.14;100.00;101661.22;5038967;28;45306;-79
2022/01/02 00:12:08;;;;;;;;;21.50;18.75;;;;;14.15;100.00;101674.31;5039212;28;45366;-79
2022/01/02 00:14:36;;;;;;;;;22.50;21.25;;;;;14.15;100.00;101670.78;5039514;28;45331;-78
2022/01/02 00:17:05;;;;;;;;;20.25;20.00;;;;;14.14;100.00;101667.31;5039049;28;45365;-78
2022/01/02 00:19:33;;;;;;;;;23.75;20.50;;;;;14.15;100.00;101668.19;5038932;28;45306;-79
2022/01/02 00:22:02;;;;;;;;;20.75;20.75;;;;;14.17;100.00;101672.66;5039009;28;45209;-79
2022/01/02 00:24:31;;;;;;;;;22.75;22.25;;;;;14.20;100.00;101662.38;5039117;28;45415;-79
2022/01/02 00:26:59;;;;;;;;;25.00;21.00;;;;;14.23;100.00;101659.03;5021173;28;45718;-79
2022/01/02 00:29:25;;;;;;;;;30.25;26.50;;;;;14.24;100.00;101660.81;5020955;28;45729;-79
2022/01/02 00:31:55;;;;;;;;;22.75;22.00;;;;;14.23;100.00;101646.00;5038930;28;45390;-79
2022/01/02 00:34:21;;;;;;;;;20.75;19.75;;;;;14.21;100.00;101651.13;5038923;28;45326;-79
2022/01/02 00:36:47;;;;;;;;;21.00;18.75;;;;;14.18;100.00;101652.72;5038614;28;46369;-79
2022/01/02 00:39:13;;;;;;;;;23.00;20.50;;;;;14.14;100.00;101643.88;5038608;28;45251;-79
2022/01/02 00:42:02;;;;;;;;;17.50;16.25;;;;;14.10;100.00;101652.38;5038839;28;45228;-80
2022/01/02 00:44:47;;;;;;;;;23.25;21.25;;;;;14.05;100.00;101648.69;5039265;28;45415;-80
2022/01/02 00:47:15;;;;;;;;;23.00;20.25;;;;;14.00;100.00;101650.19;5038600;28;45935;-79
2022/01/02 00:49:53;;;;;;;;;22.50;17.75;;;;;13.96;100.00;101640.47;5038506;28;45386;-80
2022/01/02 00:52:20;;;;;;;;;22.25;21.75;;;;;13.93;100.00;101644.72;5038694;28;45246;-81
2022/01/02 00:54:46;;;;;;;;;25.25;20.00;;;;;13.93;100.00;101643.81;5038808;28;45433;-80
2022/01/02 00:57:17;;;;;;;;;23.50;20.50;;;;;13.96;100.00;101649.16;5038251;28;45346;-79
2022/01/02 01:00:04;;;;;;;;;22.25;20.50;;;;;13.92;100.00;101624.72;5037987;28;45829;-79
2022/01/02 01:02:55;;;;;;;;;23.75;20.50;;;;;13.93;100.00;101623.88;5038460;28;45305;-79
2022/01/02 01:05:23;;;;;;;;;18.75;17.00;;;;;13.94;100.00;101611.75;5038450;28;45421;-79
2022/01/02 01:07:53;;;;;;;;;18.75;18.50;;;;;13.95;100.00;101607.44;5020217;28;48130;-78
2022/01/02 01:10:20;;;;;;;;;24.50;19.50;;;;;13.96;100.00;101604.91;5038192;28;45417;-79
2022/01/02 01:12:55;;;;;;;;;20.25;18.75;;;;;14.00;100.00;101616.34;5020434;28;45395;-79
2022/01/02 01:15:22;;;;;;;;;21.00;18.50;;;;;14.02;100.00;101601.69;5020483;28;45410;-78
2022/01/02 01:17:51;;;;;;;;;18.50;17.00;;;;;14.06;100.00;101582.78;5020110;28;46311;-79
2022/01/02 01:20:17;;;;;;;;;16.00;15.00;;;;;14.09;100.00;101588.13;5037923;28;45355;-78
2022/01/02 01:22:48;;;;;;;;;20.00;20.00;;;;;14.11;100.00;101582.97;5038166;28;45339;-78
2022/01/02 01:25:17;;;;;;;;;19.25;16.50;;;;;14.15;100.00;101579.66;5020311;28;45311;-79
2022/01/02 01:27:45;;;;;;;;;16.00;16.00;;;;;14.17;100.00;101567.59;5037678;28;46126;-79
2022/01/02 01:30:12;;;;;;;;;17.75;16.00;;;;;14.19;100.00;101582.47;5037599;28;45867;-79
2022/01/02 01:32:38;;;;;;;;;22.25;19.00;;;;;14.19;100.00;101584.19;5037901;28;45338;-79
2022/01/02 01:35:05;;;;;;;;;17.00;15.00;;;;;14.19;100.00;101574.66;5038111;28;45563;-79
2022/01/02 01:37:31;;;;;;;;;19.75;18.00;;;;;14.21;100.00;101572.13;5037598;28;45613;-79
2022/01/02 01:39:57;;;;;;;;;18.00;18.00;;;;;14.22;100.00;101564.34;5037958;28;45910;-80
2022/01/02 01:42:36;;;;;;;;;18.75;16.50;;;;;14.21;100.00;101564.31;5037984;28;45398;-79
2022/01/02 01:47:55;;;;;;;;;20.00;20.00;;;;;14.21;100.00;101559.97;5037510;28;45885;-80
2022/01/02 01:50:25;;;;;;;;;22.25;18.75;;;;;14.21;100.00;101561.69;5019529;28;45465;-80
2022/01/02 01:52:51;;;;;;;;;19.50;18.00;;;;;14.19;100.00;101546.03;5037691;28;45181;-80
2022/01/02 01:55:17;;;;;;;;;20.50;19.75;;;;;14.20;100.00;101544.28;5037817;28;45369;-81
2022/01/02 01:57:43;;;;;;;;;18.25;16.75;;;;;14.20;100.00;101550.38;5037266;28;45338;-80
2022/01/02 02:00:16;;;;;;;;;19.75;18.50;;;;;14.18;100.00;101546.84;5019566;28;45771;-81
2022/01/02 02:02:43;;;;;;;;;16.00;16.00;;;;;14.13;100.00;101545.75;5037696;28;45365;-80
2022/01/02 02:05:09;;;;;;;;;17.50;14.50;;;;;14.07;100.00;101538.56;5037739;28;45397;-80
2022/01/02 02:07:42;;;;;;;;;20.75;17.25;;;;;14.02;100.00;101540.09;5019198;28;46277;-80
2022/01/02 02:10:24;;;;;;;;;19.25;16.50;;;;;13.94;100.00;101541.47;5037215;28;45432;-80
2022/01/02 02:12:53;;;;;;;;;18.25;17.50;;;;;13.85;100.00;101531.56;5037213;28;45288;-80
2022/01/02 02:15:20;;;;;;;;;20.00;14.00;;;;;13.80;100.00;101534.78;5037472;28;45322;-80
2022/01/02 02:17:48;;;;;;;;;16.50;14.00;;;;;13.74;100.00;101525.00;5036406;28;45391;-80
2022/01/02 02:20:20;;;;;;;;;17.50;16.00;;;;;13.70;100.00;101517.88;5037029;28;45845;-79
2022/01/02 02:22:48;;;;;;;;;17.25;14.25;;;;;13.69;100.00;101513.50;5037179;28;45432;-79
2022/01/02 02:25:20;;;;;;;;;20.50;16.25;;;;;13.70;100.00;101507.47;5037473;28;45248;-78
2022/01/02 02:27:50;;;;;;;;;17.25;16.00;;;;;13.75;100.00;101500.75;5037527;28;46025;-78
2022/01/02 02:30:16;;;;;;;;;16.00;14.50;;;;;13.80;100.00;101498.34;5037323;28;45276;-79
2022/01/02 02:32:42;;;;;;;;;15.00;15.00;;;;;13.83;100.00;101501.06;5037393;28;45367;-78
2022/01/02 02:35:08;;;;;;;;;18.25;16.75;;;;;13.87;100.00;101487.38;5037288;28;45334;-79
2022/01/02 02:37:37;;;;;;;;;18.25;17.50;;;;;13.92;100.00;101493.69;5036917;28;46171;-79
2022/01/02 02:40:03;;;;;;;;;18.75;15.25;;;;;13.96;100.00;101492.09;5036654;28;45430;-79
2022/01/02 02:42:40;;;;;;;;;18.00;17.25;;;;;13.98;100.00;101472.22;5037170;28;45318;-79
2022/01/02 02:50:48;;;;;;;;;18.00;14.25;;;;;14.02;100.00;101459.38;5036540;28;45840;-79
2022/01/02 02:53:15;;;;;;;;;19.50;16.00;;;;;14.05;100.00;101459.50;5036712;28;45468;-79
2022/01/02 02:55:48;;;;;;;;;18.00;16.00;;;;;14.07;100.00;101452.63;5036875;28;45596;-79
2022/01/02 02:58:39;;;;;;;;;16.50;16.25;;;;;14.04;100.00;101455.09;5036523;28;45357;-79
2022/01/02 03:01:03;;;;;;;;;13.00;12.75;;;;;13.98;100.00;101452.25;5036275;28;45972;-79
2022/01/02 03:03:28;;;;;;;;;17.25;16.75;;;;;13.92;100.00;101458.09;5036917;28;45315;-79
2022/01/02 03:05:54;;;;;;;;;18.00;17.75;;;;;13.88;100.00;101466.59;5036931;28;45621;-79
2022/01/02 03:08:20;;;;;;;;;16.25;14.00;;;;;13.86;100.00;101494.31;5036162;28;45867;-79
2022/01/02 03:10:45;;;;;;;;;14.75;14.00;;;;;13.85;100.00;101478.59;5036434;28;45252;-79
2022/01/02 03:13:11;;;;;;;;;15.50;14.75;;;;;13.86;100.00;101455.25;5036508;28;45197;-79
2022/01/02 03:15:37;;;;;;;;;15.25;12.75;;;;;13.90;100.00;101451.06;5036910;28;45530;-79
2022/01/02 03:18:03;;;;;;;;;10.50;10.00;;;;;13.90;100.00;101445.84;5036115;28;45389;-79
2022/01/02 03:20:29;;;;;;;;;14.25;14.25;;;;;13.91;100.00;101455.44;5036624;28;45851;-79
2022/01/02 03:22:54;;;;;;;;;14.50;14.50;;;;;13.92;100.00;101462.44;5036330;28;45403;-78
2022/01/02 03:25:20;;;;;;;;;16.50;15.50;;;;;13.94;100.00;101455.56;5036606;28;45492;-79
2022/01/02 03:27:46;;;;;;;;;16.00;14.25;;;;;13.96;100.00;101469.53;5018212;28;46469;-79
2022/01/02 03:30:13;;;;;;;;;14.25;13.00;;;;;14.00;100.00;101466.25;5019258;28;45316;-78
2022/01/02 03:32:40;;;;;;;;;12.00;11.25;;;;;14.03;100.00;101473.28;5039893;28;45247;-79
2022/01/02 03:35:07;;;;;;;;;9.00;7.00;;;;;14.05;100.00;101469.91;5022095;28;45578;-79
2022/01/02 03:37:33;;;;;;;;;13.00;12.00;;;;;14.06;100.00;101476.88;5039474;28;46188;-79
2022/01/02 03:40:05;;;;;;;;;12.50;11.75;;;;;14.08;100.00;101479.56;5039827;28;45933;-79
2022/01/02 03:42:32;;;;;;;;;14.75;13.00;;;;;14.13;100.00;101482.38;5040008;28;45222;-79
2022/01/02 03:44:58;;;;;;;;;14.50;12.75;;;;;14.16;100.00;101467.75;5040291;28;45595;-79
2022/01/02 03:47:24;;;;;;;;;17.00;14.00;;;;;14.20;100.00;101464.44;5039415;28;45426;-79
2022/01/02 03:49:49;;;;;;;;;13.50;12.50;;;;;14.23;100.00;101448.06;5021344;28;45528;-79
2022/01/02 03:52:15;;;;;;;;;15.75;15.00;;;;;14.27;100.00;101456.88;5039430;28;45254;-79
2022/01/02 03:54:41;;;;;;;;;12.50;12.25;;;;;14.26;100.00;101419.50;5039625;28;45636;-79
2022/01/02 03:57:06;;;;;;;;;13.00;13.00;;;;;14.29;100.00;101434.41;5039306;28;45683;-79
2022/01/02 03:59:32;;;;;;;;;15.50;14.00;;;;;14.29;100.00;101418.75;5039296;28;45466;-79
2022/01/02 04:01:58;;;;;;;;;13.00;13.00;;;;;14.27;100.00;101438.66;5039816;28;45429;-79
2022/01/02 04:04:23;;;;;;;;;14.75;13.25;;;;;14.28;100.00;101412.66;5039634;28;45376;-79
2022/01/02 04:06:49;;;;;;;;;14.00;14.00;;;;;14.25;100.00;101430.78;5039197;28;45347;-79
2022/01/02 04:09:15;;;;;;;;;16.25;13.50;;;;;14.22;100.00;101410.69;5038974;28;45184;-79
2022/01/02 04:11:40;;;;;;;;;13.00;12.00;;;;;14.21;100.00;101436.69;5039231;28;45305;-79
2022/01/02 04:14:06;;;;;;;;;11.50;10.50;;;;;14.23;100.00;101424.63;5039449;28;45446;-79
2022/01/02 04:16:32;;;;;;;;;14.50;12.50;;;;;14.22;100.00;101446.28;5039251;28;45238;-79
2022/01/02 04:18:57;;;;;;;;;16.25;12.75;;;;;14.24;100.00;101408.16;5039387;28;45211;-80
2022/01/02 04:21:23;;;;;;;;;14.00;12.00;;;;;14.21;100.00;101400.22;5038973;28;45461;-79
2022/01/02 04:23:48;;;;;;;;;16.25;13.50;;;;;14.18;100.00;101419.22;5039254;28;45406;-80
2022/01/02 04:26:14;;;;;;;;;14.25;14.25;;;;;14.18;100.00;101408.81;5020933;28;46385;-79
2022/01/02 04:28:39;;;;;;;;;16.00;13.00;;;;;14.19;100.00;101417.50;5038626;28;45346;-79
2022/01/02 04:31:05;;;;;;;;;12.50;12.25;;;;;14.22;100.00;101417.63;5038950;28;45323;-79
2022/01/02 04:33:31;;;;;;;;;13.00;13.00;;;;;14.24;100.00;101415.97;5021339;28;45340;-80
2022/01/02 04:35:56;;;;;;;;;14.50;14.50;;;;;14.23;100.00;101383.81;5038596;28;45990;-79
2022/01/02 04:38:22;;;;;;;;;15.75;12.50;;;;;14.23;100.00;101378.63;5020860;28;45513;-80
2022/01/02 04:40:48;;;;;;;;;15.00;14.00;;;;;14.21;100.00;101367.25;5038376;28;45336;-79
2022/01/02 04:43:14;;;;;;;;;14.00;14.00;;;;;14.17;100.00;101378.38;5021169;28;45633;-79
2022/01/02 04:45:40;;;;;;;;;12.75;12.75;;;;;14.11;100.00;101387.66;5020452;28;45531;-79
2022/01/02 04:48:06;;;;;;;;;13.00;13.00;;;;;14.09;100.00;101385.03;5038440;28;45294;-79
2022/01/02 04:50:31;;;;;;;;;8.00;6.50;;;;;14.07;100.00;101389.28;5021111;28;45361;-79
2022/01/02 04:52:57;;;;;;;;;16.50;13.75;;;;;14.08;100.00;101378.03;5038689;28;45568;-79
2022/01/02 04:55:24;;;;;;;;;15.75;15.75;;;;;14.05;100.00;101349.25;5038408;28;45443;-79
2022/01/02 04:57:49;;;;;;;;;17.25;14.25;;;;;13.98;100.00;101355.06;5038501;28;45435;-79
2022/01/02 05:00:15;;;;;;;;;17.00;13.25;;;;;13.94;100.00;101335.81;5038452;28;45424;-79
2022/01/02 05:02:41;;;;;;;;;17.00;14.25;;;;;13.89;100.00;101347.78;5020723;28;45371;-79
2022/01/02 05:05:07;;;;;;;;;12.75;12.25;;;;;13.89;100.00;101312.19;5038056;28;45709;-79
2022/01/02 05:07:32;;;;;;;;;12.00;12.00;;;;;13.85;100.00;101341.56;5038537;28;45341;-79
2022/01/02 05:09:59;;;;;;;;;13.00;12.00;;;;;13.81;100.00;101324.03;5038335;28;45281;-79
2022/01/02 05:12:25;;;;;;;;;11.50;11.50;;;;;13.80;100.00;101363.03;5038375;28;45235;-79
2022/01/02 05:14:50;;;;;;;;;13.00;12.00;;;;;13.78;100.00;101355.13;5037926;28;45819;-79
2022/01/02 05:17:16;;;;;;;;;12.50;11.00;;;;;13.81;100.00;101359.59;5037962;28;45374;-79
2022/01/02 05:19:42;;;;;;;;;10.00;10.00;;;;;13.81;100.00;101370.00;5038157;28;45471;-79
2022/01/02 05:22:07;;;;;;;;;13.00;12.25;;;;;13.82;100.00;101367.44;5038394;28;45282;-79
2022/01/02 05:24:33;;;;;;;;;13.75;13.00;;;;;13.86;100.00;101363.25;5038162;28;46160;-79
2022/01/02 05:26:58;;;;;;;;;11.75;11.75;;;;;13.88;100.00;101364.22;5038311;28;45458;-79
2022/01/02 05:29:24;;;;;;;;;14.00;12.75;;;;;13.89;100.00;101356.44;5020103;28;45445;-79
2022/01/02 05:31:50;;;;;;;;;13.50;11.50;;;;;13.90;100.00;101350.41;5038179;28;45537;-80
2022/01/02 05:34:16;;;;;;;;;12.75;11.00;;;;;13.93;100.00;101353.16;5037662;28;45533;-80
2022/01/02 05:36:48;;;;;;;;;12.25;12.00;;;;;14.00;100.00;101355.97;5037857;28;45405;-80
2022/01/02 05:39:15;;;;;;;;;10.75;10.75;;;;;14.04;100.00;101363.09;5037783;28;45475;-79
2022/01/02 05:41:41;;;;;;;;;12.25;9.75;;;;;14.08;100.00;101352.00;5038140;28;45264;-79
2022/01/02 05:44:07;;;;;;;;;11.75;11.50;;;;;14.10;100.00;101332.09;5037490;28;46464;-78
2022/01/02 05:46:32;;;;;;;;;12.75;12.75;;;;;14.10;100.00;101329.47;5038036;28;45311;-79
2022/01/02 05:48:58;;;;;;;;;12.75;12.75;;;;;14.12;100.00;101353.88;5037475;28;45353;-79
2022/01/02 05:51:23;;;;;;;;;10.00;10.00;;;;;14.14;100.00;101343.53;5037804;28;45231;-79
2022/01/02 05:53:49;;;;;;;;;10.75;10.75;;;;;14.19;100.00;101345.50;5036371;28;45581;-79
2022/01/02 05:56:15;;;;;;;;;11.50;10.25;;;;;14.20;100.00;101344.63;5037311;28;45551;-79
2022/01/02 05:58:40;;;;;;;;;11.25;11.25;;;;;14.22;100.00;101347.31;5037505;28;45263;-79
2022/01/02 06:01:06;;;;;;;;;8.50;7.75;;;;;14.27;100.00;101355.31;5037742;28;45581;-79
2022/01/02 06:03:32;;;;;;;;;12.00;10.25;;;;;14.28;100.00;101344.06;5037386;28;46064;-79
2022/01/02 06:05:57;;;;;;;;;9.00;9.00;;;;;14.29;100.00;101338.03;5037302;28;45254;-79
2022/01/02 06:08:23;;;;;;;;;11.25;9.50;;;;;14.29;100.00;101343.22;5037316;28;45501;-79
2022/01/02 06:10:49;;;;;;;;;10.00;10.00;;;;;14.33;100.00;101346.00;5037544;28;45489;-79
2022/01/02 06:13:14;;;;;;;;;12.25;11.25;;;;;14.33;100.00;101351.22;5037219;28;46057;-79
2022/01/02 06:15:40;;;;;;;;;13.25;10.50;;;;;14.37;100.00;101340.06;5037027;28;45319;-79
2022/01/02 06:18:05;;;;;;;;;10.25;10.00;;;;;14.41;100.00;101335.88;5037206;28;45506;-79
2022/01/02 06:20:31;;;;;;;;;11.00;10.25;;;;;14.46;100.00;101326.50;5037933;28;45526;-79
2022/01/02 06:22:57;;;;;;;;;2.00;1.00;;;;;14.48;100.00;101323.94;5037181;28;45488;-79
2022/01/02 06:25:23;;;;;;;;;13.25;10.25;;;;;14.51;100.00;101335.41;5037081;28;45552;-79
2022/01/02 06:27:49;;;;;;;;;11.50;10.25;;;;;14.55;100.00;101352.03;5035794;28;45414;-79
2022/01/02 06:30:15;;;;;;;;;8.50;8.50;;;;;14.57;100.00;101339.03;5037273;28;45639;-79
2022/01/02 06:32:41;;;;;;;;;11.50;9.00;;;;;14.59;100.00;101347.81;5036852;28;45389;-79
2022/01/02 06:35:07;;;;;;;;;10.25;10.25;;;;;14.61;100.00;101361.78;5036712;28;45489;-79
2022/01/02 06:37:32;;;;;;;;;11.00;9.50;;;;;14.59;99.43;101373.88;5037364;28;45386;-79
2022/01/02 06:39:58;;;;;;;;;9.25;9.25;;;;;14.56;100.00;101387.69;5019182;28;45294;-79
2022/01/02 06:42:23;;;;;;;;;9.00;8.50;;;;;14.53;100.00;101391.03;5036729;28;45372;-79
2022/01/02 06:44:49;;;;;;;;;10.00;8.00;;;;;14.52;100.00;101384.03;5036726;28;45260;-79
2022/01/02 06:47:15;;;;;;;;;10.75;10.00;;;;;14.50;100.00;101387.44;5036906;28;45445;-79
2022/01/02 06:49:41;;;;;;;;;10.00;9.25;;;;;14.49;100.00;101370.91;5037020;28;45330;-79
2022/01/02 06:52:08;;;;;;;;;12.75;11.50;;;;;14.47;100.00;101367.38;5036635;28;46394;-79
2022/01/02 06:54:34;;;;;;;;;10.50;8.75;;;;;14.44;100.00;101377.66;5036917;28;45676;-79
2022/01/02 06:56:59;;;;;;;;;11.00;9.75;;;;;14.41;100.00;101388.00;5036852;28;45410;-79
2022/01/02 06:59:25;;;;;;;;;11.25;9.50;;;;;14.37;100.00;101391.28;5036795;28;45723;-78
2022/01/02 07:01:51;;;;;;;;;12.00;10.50;;;;;14.33;100.00;101392.00;5036336;28;46058;-79
2022/01/02 07:04:16;;;;;;;;;8.75;8.75;;;;;14.30;100.00;101392.75;5036052;28;45342;-79
2022/01/02 07:06:42;;;;;;;;;14.25;9.75;;;;;14.27;100.00;101396.97;5036572;28;45325;-79
2022/01/02 07:09:07;;;;;;;;;7.00;7.00;;;;;14.27;100.00;101399.56;5036699;28;45561;-79
2022/01/02 07:11:33;;;;;;;;;12.25;10.50;;;;;14.32;100.00;101387.59;5040375;28;45545;-78
2022/01/02 07:13:59;;;;;;;;;10.50;10.25;;;;;14.32;100.00;101380.69;5021410;28;45250;-80
2022/01/02 07:16:24;;;;;;;;;10.75;10.50;;;;;14.33;100.00;101390.28;5036399;28;45276;-80
2022/01/02 07:18:50;;;;;;;;;12.75;12.00;;;;;14.32;100.00;101387.59;5036612;28;45324;-81
2022/01/02 07:21:17;;;;;;;;;14.75;11.75;;;;;14.28;100.00;101385.72;5036159;28;45460;-80
2022/01/02 07:23:44;;;;;;;;;11.75;11.50;;;;;14.23;100.00;101388.16;5036260;28;45666;-80
2022/01/02 07:26:09;;;;;;;;;10.25;9.25;;;;;14.17;100.00;101373.19;5036417;28;45327;-80
2022/01/02 07:28:35;;;;;;;;;5.00;4.25;;;;;14.19;100.00;101399.28;5036134;28;45315;-81
2022/01/02 07:31:01;;;;;;;;;10.00;10.00;;;;;14.16;100.00;101383.50;5041090;28;46662;-80
2022/01/02 07:33:27;;;;;;;;;10.25;9.50;;;;;14.14;100.00;101395.63;5049141;28;45224;-79
2022/01/02 07:35:53;;;;;;;;;9.50;9.50;;;;;14.07;100.00;101386.66;5038216;28;45373;-80
2022/01/02 07:38:19;;;;;;;;;8.50;8.50;;;;;14.04;100.00;101382.19;5036398;28;45617;-79
2022/01/02 07:40:44;;;;;;;;;16.00;11.00;;;;;14.04;100.00;101384.81;5036167;28;45476;-80
2022/01/02 07:43:10;;;;;;;;;14.00;10.00;;;;;13.99;100.00;101375.94;5036151;28;45458;-80
2022/01/02 07:45:35;;;;;;;;;13.75;11.25;;;;;13.91;100.00;101377.34;5035538;28;45490;-80
2022/01/02 07:48:01;;;;;;;;;13.25;9.75;;;;;13.84;100.00;101383.13;5035963;28;45580;-79
2022/01/02 07:50:27;;;;;;;;;12.75;8.50;;;;;13.75;100.00;101394.06;5042955;28;45641;-80
2022/01/02 07:52:52;;;;;;;;;13.50;11.75;;;;;13.71;100.00;101415.56;5035167;28;45305;-80
2022/01/02 07:55:19;;;;;;;;;13.25;12.50;;;;;13.66;100.00;101414.50;5017233;28;45424;-81
2022/01/02 07:57:45;;;;;;;;;13.00;12.75;;;;;13.66;100.00;101427.50;5035988;28;45497;-79
2022/01/02 08:00:12;;;;;;;;;11.00;9.75;;;;;13.62;100.00;101439.47;5035546;28;46077;-80
2022/01/02 08:02:37;;;;;;;;;8.75;8.75;;;;;13.59;100.00;101441.97;5017978;28;45402;-79
2022/01/02 08:05:04;;;;;;;;;11.00;10.50;;;;;13.57;100.00;101444.50;5036195;28;45457;-81
2022/01/02 08:07:29;;;;;;;;;12.50;11.50;;;;;13.52;100.00;101456.44;5035988;28;45575;-81
2022/01/02 08:09:55;;;;;;;;;15.25;11.50;;;;;13.49;100.00;101452.81;5017847;28;45387;-81
2022/01/02 08:12:20;;;;;;;;;10.75;10.00;;;;;13.48;100.00;101459.72;5036138;28;45360;-81
2022/01/02 08:14:46;;;;;;;;;10.00;8.50;;;;;13.47;100.00;101465.72;5035810;28;45478;-80
2022/01/02 08:17:12;;;;;;;;;11.75;11.75;;;;;13.45;100.00;101465.69;5038783;28;45592;-86
2022/01/02 08:19:37;;;;;;;;;14.00;12.25;;;;;13.49;100.00;101468.41;5021850;28;46266;-81
2022/01/02 08:22:03;;;;;;;;;11.00;10.25;;;;;13.46;100.00;101467.47;5021841;28;45357;-85
2022/01/02 08:24:29;;;;;;;;;11.25;9.50;;;;;13.48;100.00;101472.72;5021175;28;45382;-77
2022/01/02 08:26:54;;;;;;;;;9.75;8.75;;;;;13.50;100.00;101478.88;5038313;28;45529;-77
2022/01/02 08:29:20;;;;;;;;;11.25;9.75;;;;;13.52;100.00;101465.94;5038111;28;45391;-77
2022/01/02 08:31:45;;;;;;;;;12.00;11.00;;;;;13.48;100.00;101477.91;5037513;28;45255;-78
2022/01/02 08:34:11;;;;;;;;;10.75;9.50;;;;;13.46;100.00;101471.75;5020773;28;45470;-76
2022/01/02 08:36:37;;;;;;;;;10.50;9.00;;;;;13.47;100.00;101468.34;5039244;28;45180;-77
2022/01/02 08:39:03;;;;;;;;;11.25;10.75;;;;;13.49;100.00;101471.91;5038736;28;46345;-76
2022/01/02 08:41:31;;;;;;;;;10.25;10.00;;;;;13.44;100.00;101469.09;5020966;28;45794;-77
2022/01/02 08:43:57;;;;;;;;;10.50;9.25;;;;;13.46;100.00;101479.56;5042092;28;45333;-84
2022/01/02 08:46:23;;;;;;;;;12.50;9.50;;;;;13.44;100.00;101476.03;5040224;28;45391;-81
2022/01/02 08:48:49;;;;;;;;;11.00;10.00;;;;;13.47;100.00;101478.72;5038150;28;45891;-85
2022/01/02 08:51:14;;;;;;;;;12.00;10.50;;;;;13.46;100.00;101475.25;5039770;28;45367;-85
2022/01/02 08:53:40;;;;;;;;;11.00;10.25;;;;;13.48;100.00;101485.72;5040580;28;45256;-80
2022/01/02 08:56:06;;;;;;;;;14.75;10.50;;;;;13.47;100.00;101491.75;5040065;28;45584;-83
2022/01/02 08:58:32;;;;;;;;;10.50;10.50;;;;;13.47;100.00;101489.13;5038954;28;46071;-79
2022/01/02 09:00:59;;;;;;;;;13.00;10.75;;;;;13.47;100.00;101491.75;5037699;28;45655;-84
2022/01/02 09:03:25;;;;;;;;;10.25;9.00;;;;;13.50;100.00;101491.00;5038147;28;45339;-79
2022/01/02 09:05:50;;;;;;;;;12.25;10.75;;;;;13.52;100.00;101504.94;5020469;28;45494;-79
2022/01/02 09:08:16;;;;;;;;;12.00;12.00;;;;;13.49;100.00;101503.09;5037739;28;46008;-75
2022/01/02 09:10:41;;;;;;;;;11.50;10.50;;;;;13.51;100.00;101522.28;5037559;28;45315;-79
2022/01/02 09:13:08;;;;;;;;;13.75;11.50;;;;;13.49;100.00;101508.31;5037764;28;45363;-75
2022/01/02 09:15:34;;;;;;;;;9.25;9.00;;;;;13.49;100.00;101507.44;5038259;28;45458;-76
2022/01/02 09:18:01;;;;;;;;;10.25;10.25;;;;;13.50;100.00;101517.91;5037682;28;45987;-78
2022/01/02 09:20:27;;;;;;;;;11.25;10.25;;;;;13.49;100.00;101523.94;5036915;28;45827;-77
2022/01/02 09:22:54;;;;;;;;;10.75;10.25;;;;;13.50;100.00;101520.50;5037006;28;45306;-77
2022/01/02 09:25:19;;;;;;;;;11.00;10.25;;;;;13.50;100.00;101522.22;5037206;28;45402;-78
2022/01/02 09:27:45;;;;;;;;;12.75;12.75;;;;;13.51;100.00;101530.09;5036668;28;46003;-77
2022/01/02 09:30:11;;;;;;;;;11.25;10.75;;;;;13.53;100.00;101532.75;5036705;28;45435;-78
2022/01/02 09:32:37;;;;;;;;;8.25;8.25;;;;;13.54;100.00;101534.53;5037434;28;45384;-78
2022/01/02 09:35:05;;;;;;;;;9.00;9.00;;;;;13.56;100.00;101519.88;5037395;28;45600;-77
2022/01/02 09:37:31;;;;;;;;;10.75;9.25;;;;;13.58;100.00;101516.53;5036875;28;45536;-78
2022/01/02 09:39:57;;;;;;;;;9.50;9.50;;;;;13.60;100.00;101509.69;5037063;28;45251;-79
2022/01/02 09:42:23;;;;;;;;;10.00;10.00;;;;;13.61;100.00;101514.06;5037107;28;45454;-82
2022/01/02 09:44:48;;;;;;;;;11.00;9.00;;;;;13.64;100.00;101509.81;5034279;28;45698;-75
2022/01/02 09:47:20;;;;;;;;;12.75;9.25;;;;;13.65;100.00;101507.28;5018350;28;46620;-76
2022/01/02 09:49:47;;;;;;;;;10.00;9.25;;;;;13.70;100.00;101507.47;5005035;28;45328;-75
2022/01/02 09:52:13;;;;;;;;;9.00;9.00;;;;;13.74;100.00;101506.78;5037410;28;45280;-76
2022/01/02 09:54:40;;;;;;;;;9.50;7.75;;;;;13.80;100.00;101517.44;5037370;28;45382;-74
2022/01/02 09:57:05;;;;;;;;;11.25;10.25;;;;;13.83;100.00;101517.59;5037278;28;45826;-78
2022/01/02 09:59:31;;;;;;;;;12.75;11.50;;;;;13.83;100.00;101509.78;5036759;28;45451;-76
2022/01/02 10:01:59;;;;;;;;;9.00;9.00;;;;;13.88;100.00;101517.78;5036642;28;45419;-77
2022/01/02 10:04:41;;;;;;;;;9.25;8.25;;;;;13.92;100.00;101525.78;5037011;28;45644;-77
2022/01/02 10:07:29;;;;;;;;;8.00;6.00;;;;;13.94;100.00;101523.22;5035109;28;45818;-76
2022/01/02 10:09:55;;;;;;;;;9.25;7.25;;;;;13.96;100.00;101523.31;5035506;28;45261;-77
2022/01/02 10:12:21;;;;;;;;;10.75;9.75;;;;;14.00;100.00;101528.72;5036197;28;45278;-76
2022/01/02 10:15:06;;;;;;;;;13.50;8.50;;;;;14.06;100.00;101522.88;5018377;28;45531;-76
2022/01/02 10:17:53;;;;;;;;;7.50;6.50;;;;;14.11;100.00;101518.75;5035661;28;45421;-77
2022/01/02 10:20:27;;;;;;;;;7.00;6.00;;;;;14.18;100.00;101515.59;5022442;28;45815;-75
2022/01/02 10:23:05;;;;;;;;;7.25;6.25;;;;;14.30;100.00;101523.00;5036254;28;45453;-77
2022/01/02 10:25:40;;;;;;;;;7.00;7.00;;;;;14.40;100.00;101527.75;5036301;28;45351;-77
2022/01/02 10:28:35;;;;;;;;;7.75;6.75;;;;;14.51;100.00;101519.50;5036062;28;45345;-77
2022/01/02 10:31:06;;;;;;;;;5.00;5.00;;;;;14.60;100.00;101521.56;5017591;28;45835;-77
2022/01/02 10:33:59;;;;;;;;;9.00;6.50;;;;;14.67;100.00;101508.88;5017878;28;45397;-76
2022/01/02 10:36:42;;;;;;;;;4.75;4.75;;;;;14.75;100.00;101524.81;5036284;28;45411;-75
2022/01/02 10:39:20;;;;;;;;;9.00;6.50;;;;;14.80;100.00;101520.69;5035102;28;45488;-75
2022/01/02 10:41:51;;;;;;;;;4.00;4.00;;;;;14.83;100.00;101518.19;5035584;28;45749;-76
2022/01/02 10:44:29;;;;;;;;;5.00;4.00;;;;;14.85;100.00;101524.34;5035813;28;45370;-77
2022/01/02 10:47:11;;;;;;;;;4.50;4.50;;;;;14.92;100.00;101525.47;5018558;28;45382;-76
2022/01/02 10:49:50;;;;;;;;;4.25;3.25;;;;;14.95;100.00;101525.59;5038178;28;46074;-76
2022/01/02 10:52:20;;;;;;;;;5.00;4.25;;;;;14.96;100.00;101518.63;5034959;28;45443;-76
2022/01/02 10:54:46;;;;;;;;;4.75;4.75;;;;;14.97;100.00;101517.81;5017515;28;45331;-77
2022/01/02 10:57:13;;;;;;;;;6.00;4.25;;;;;14.98;100.00;101525.72;5035452;28;45365;-76
2022/01/02 10:59:41;;;;;;;;;3.00;3.00;;;;;14.99;100.00;101531.81;5035570;28;45315;-75
2022/01/02 11:02:10;;;;;;;;;4.00;4.00;;;;;15.03;100.00;101515.47;5035358;28;45671;-73
2022/01/02 11:04:38;;;;;;;;;3.50;3.50;;;;;15.07;100.00;101519.94;5035467;28;45426;-77
2022/01/02 11:07:06;;;;;;;;;5.50;4.00;;;;;15.09;100.00;101525.22;5040182;28;45316;-78
2022/01/02 11:09:33;;;;;;;;;6.00;4.75;;;;;15.11;100.00;101540.09;5047522;28;45606;-80
2022/01/02 11:12:00;;;;;;;;;4.00;4.00;;;;;15.12;100.00;101531.44;5034018;28;45852;-81
2022/01/02 11:14:25;;;;;;;;;5.25;4.00;;;;;15.13;100.00;101521.88;5043158;28;45299;-81
2022/01/02 11:16:51;;;;;;;;;5.50;4.00;;;;;15.14;100.00;101521.97;5046494;28;45407;-84